sensor_id;sensor_type;location;lat;lon;timestamp;temperature;humidity
10042;DHT22;5061;49.068;12.058;2023-05-10T00:02:18;14.00;92.30
10042;DHT22;5061;49.068;12.058;2023-05-10T00:05:38;14.00;92.50
10042;DHT22;5061;49.068;12.058;2023-05-10T00:08:59;14.00;92.60
10042;DHT22;5061;49.068;12.058;2023-05-10T00:12:24;14.00;92.60
10042;DHT22;5061;49.068;12.058;2023-05-10T00:15:45;14.00;92.60
10042;DHT22;5061;49.068;12.058;2023-05-10T00:19:06;14.00;92.60
10042;DHT22;5061;49.068;12.058;2023-05-10T00:22:27;14.00;92.80
10042;DHT22;5061;49.068;12.058;2023-05-10T00:25:48;14.00;93.20
10042;DHT22;5061;49.068;12.058;2023-05-10T00:29:10;13.90;92.90
10042;DHT22;5061;49.068;12.058;2023-05-10T00:32:31;13.90;92.80
10042;DHT22;5061;49.068;12.058;2023-05-10T00:35:52;13.90;92.90
10042;DHT22;5061;49.068;12.058;2023-05-10T00:39:13;13.90;93.00
10042;DHT22;5061;49.068;12.058;2023-05-10T00:42:34;13.90;93.00
10042;DHT22;5061;49.068;12.058;2023-05-10T00:45:55;13.80;93.00
10042;DHT22;5061;49.068;12.058;2023-05-10T00:49:17;13.80;93.40
10042;DHT22;5061;49.068;12.058;2023-05-10T00:52:38;13.80;93.30
10042;DHT22;5061;49.068;12.058;2023-05-10T00:55:59;13.80;93.30
10042;DHT22;5061;49.068;12.058;2023-05-10T00:59:21;13.80;93.40
10042;DHT22;5061;49.068;12.058;2023-05-10T01:02:43;13.80;93.50
10042;DHT22;5061;49.068;12.058;2023-05-10T01:06:04;13.80;93.50
10042;DHT22;5061;49.068;12.058;2023-05-10T01:09:26;13.70;93.60
10042;DHT22;5061;49.068;12.058;2023-05-10T01:12:47;13.70;93.60
10042;DHT22;5061;49.068;12.058;2023-05-10T01:16:08;13.70;93.70
10042;DHT22;5061;49.068;12.058;2023-05-10T01:19:30;13.70;93.90
10042;DHT22;5061;49.068;12.058;2023-05-10T01:41:23;13.70;94.50
10042;DHT22;5061;49.068;12.058;2023-05-10T01:44:52;13.70;94.50
10042;DHT22;5061;49.068;12.058;2023-05-10T01:48:19;13.60;94.50
10042;DHT22;5061;49.068;12.058;2023-05-10T01:51:50;13.60;94.60
10042;DHT22;5061;49.068;12.058;2023-05-10T01:55:15;13.60;94.60
10042;DHT22;5061;49.068;12.058;2023-05-10T01:58:40;13.60;94.70
10042;DHT22;5061;49.068;12.058;2023-05-10T02:02:07;13.60;94.80
10042;DHT22;5061;49.068;12.058;2023-05-10T02:05:29;13.60;95.10
10042;DHT22;5061;49.068;12.058;2023-05-10T02:08:53;13.60;95.10
10042;DHT22;5061;49.068;12.058;2023-05-10T02:12:15;13.60;95.20
10042;DHT22;5061;49.068;12.058;2023-05-10T02:15:37;13.60;95.20
10042;DHT22;5061;49.068;12.058;2023-05-10T02:18:59;13.60;95.40
10042;DHT22;5061;49.068;12.058;2023-05-10T02:22:22;13.60;95.50
10042;DHT22;5061;49.068;12.058;2023-05-10T02:25:45;13.50;95.60
10042;DHT22;5061;49.068;12.058;2023-05-10T02:29:08;13.50;95.70
10042;DHT22;5061;49.068;12.058;2023-05-10T02:32:31;13.50;96.00
10042;DHT22;5061;49.068;12.058;2023-05-10T02:35:53;13.40;96.40
10042;DHT22;5061;49.068;12.058;2023-05-10T02:39:16;13.40;96.60
10042;DHT22;5061;49.068;12.058;2023-05-10T02:42:38;13.40;96.80
10042;DHT22;5061;49.068;12.058;2023-05-10T02:46:02;13.40;97.30
10042;DHT22;5061;49.068;12.058;2023-05-10T02:49:23;13.40;97.20
10042;DHT22;5061;49.068;12.058;2023-05-10T02:52:47;13.40;97.40
10042;DHT22;5061;49.068;12.058;2023-05-10T02:56:33;13.40;97.50
10042;DHT22;5061;49.068;12.058;2023-05-10T02:59:55;13.30;97.60
10042;DHT22;5061;49.068;12.058;2023-05-10T03:03:16;13.30;97.90
10042;DHT22;5061;49.068;12.058;2023-05-10T03:06:37;13.30;98.40
10042;DHT22;5061;49.068;12.058;2023-05-10T03:09:58;13.30;98.70
10042;DHT22;5061;49.068;12.058;2023-05-10T03:13:54;13.20;99.10
10042;DHT22;5061;49.068;12.058;2023-05-10T03:17:29;13.20;99.80
10042;DHT22;5061;49.068;12.058;2023-05-10T03:20:57;13.10;99.90
10042;DHT22;5061;49.068;12.058;2023-05-10T03:24:28;13.10;99.90
10042;DHT22;5061;49.068;12.058;2023-05-10T03:27:51;13.10;99.90
10042;DHT22;5061;49.068;12.058;2023-05-10T03:31:12;13.10;99.90
10042;DHT22;5061;49.068;12.058;2023-05-10T03:34:33;13.10;99.90
10042;DHT22;5061;49.068;12.058;2023-05-10T03:37:54;13.10;99.90
10042;DHT22;5061;49.068;12.058;2023-05-10T03:41:16;13.10;99.90
10042;DHT22;5061;49.068;12.058;2023-05-10T03:44:38;13.00;99.90
10042;DHT22;5061;49.068;12.058;2023-05-10T03:47:59;13.00;99.90
10042;DHT22;5061;49.068;12.058;2023-05-10T03:51:20;13.00;99.90
10042;DHT22;5061;49.068;12.058;2023-05-10T03:54:41;13.00;99.90
10042;DHT22;5061;49.068;12.058;2023-05-10T03:58:02;13.00;99.90
10042;DHT22;5061;49.068;12.058;2023-05-10T04:01:23;12.90;99.90
10042;DHT22;5061;49.068;12.058;2023-05-10T04:04:44;12.90;99.90
10042;DHT22;5061;49.068;12.058;2023-05-10T04:08:06;12.90;99.90
10042;DHT22;5061;49.068;12.058;2023-05-10T04:11:27;12.80;99.90
10042;DHT22;5061;49.068;12.058;2023-05-10T04:14:48;12.90;99.90
10042;DHT22;5061;49.068;12.058;2023-05-10T04:18:09;12.80;99.90
10042;DHT22;5061;49.068;12.058;2023-05-10T04:21:30;12.80;99.90
10042;DHT22;5061;49.068;12.058;2023-05-10T04:24:52;12.80;99.90
10042;DHT22;5061;49.068;12.058;2023-05-10T04:28:14;12.80;99.90
10042;DHT22;5061;49.068;12.058;2023-05-10T04:31:35;12.70;99.90
10042;DHT22;5061;49.068;12.058;2023-05-10T04:34:56;12.70;99.90
10042;DHT22;5061;49.068;12.058;2023-05-10T04:38:17;12.70;99.90
10042;DHT22;5061;49.068;12.058;2023-05-10T04:41:38;12.70;99.90
10042;DHT22;5061;49.068;12.058;2023-05-10T04:45:02;12.70;99.90
10042;DHT22;5061;49.068;12.058;2023-05-10T04:48:23;12.70;99.90
10042;DHT22;5061;49.068;12.058;2023-05-10T04:51:43;12.70;99.90
10042;DHT22;5061;49.068;12.058;2023-05-10T04:55:04;12.70;99.90
10042;DHT22;5061;49.068;12.058;2023-05-10T04:58:28;12.70;99.90
10042;DHT22;5061;49.068;12.058;2023-05-10T05:01:49;12.70;99.90
10042;DHT22;5061;49.068;12.058;2023-05-10T05:05:12;12.70;99.90
10042;DHT22;5061;49.068;12.058;2023-05-10T05:08:34;12.70;99.90
10042;DHT22;5061;49.068;12.058;2023-05-10T05:11:56;12.70;99.90
10042;DHT22;5061;49.068;12.058;2023-05-10T05:15:18;12.70;99.90
10042;DHT22;5061;49.068;12.058;2023-05-10T05:18:39;12.60;99.90
10042;DHT22;5061;49.068;12.058;2023-05-10T05:22:00;12.60;99.90
10042;DHT22;5061;49.068;12.058;2023-05-10T05:25:22;12.50;99.90
10042;DHT22;5061;49.068;12.058;2023-05-10T05:28:43;12.50;99.90
10042;DHT22;5061;49.068;12.058;2023-05-10T05:32:05;12.50;99.90
10042;DHT22;5061;49.068;12.058;2023-05-10T05:35:28;12.50;99.90
10042;DHT22;5061;49.068;12.058;2023-05-10T05:38:50;12.40;99.90
10042;DHT22;5061;49.068;12.058;2023-05-10T05:42:12;12.40;99.90
10042;DHT22;5061;49.068;12.058;2023-05-10T05:45:33;12.40;99.90
10042;DHT22;5061;49.068;12.058;2023-05-10T05:48:54;12.40;99.90
10042;DHT22;5061;49.068;12.058;2023-05-10T05:52:16;12.40;99.90
10042;DHT22;5061;49.068;12.058;2023-05-10T05:55:37;12.40;99.90
10042;DHT22;5061;49.068;12.058;2023-05-10T05:58:58;12.40;99.90
10042;DHT22;5061;49.068;12.058;2023-05-10T06:02:19;12.40;99.90
10042;DHT22;5061;49.068;12.058;2023-05-10T06:05:39;12.30;99.90
10042;DHT22;5061;49.068;12.058;2023-05-10T06:09:00;12.40;99.90
10042;DHT22;5061;49.068;12.058;2023-05-10T06:12:22;12.40;99.90
10042;DHT22;5061;49.068;12.058;2023-05-10T06:15:43;12.50;99.90
10042;DHT22;5061;49.068;12.058;2023-05-10T06:19:05;12.50;99.90
10042;DHT22;5061;49.068;12.058;2023-05-10T06:22:26;12.50;99.90
10042;DHT22;5061;49.068;12.058;2023-05-10T06:25:47;12.60;99.90
10042;DHT22;5061;49.068;12.058;2023-05-10T06:29:08;12.60;99.90
10042;DHT22;5061;49.068;12.058;2023-05-10T06:32:29;12.60;99.90
10042;DHT22;5061;49.068;12.058;2023-05-10T06:35:50;12.60;99.90
10042;DHT22;5061;49.068;12.058;2023-05-10T06:39:11;12.70;99.90
10042;DHT22;5061;49.068;12.058;2023-05-10T06:42:32;12.80;99.90
10042;DHT22;5061;49.068;12.058;2023-05-10T06:45:53;12.80;99.90
10042;DHT22;5061;49.068;12.058;2023-05-10T06:49:14;12.80;99.90
10042;DHT22;5061;49.068;12.058;2023-05-10T06:52:36;12.90;99.90
10042;DHT22;5061;49.068;12.058;2023-05-10T06:55:57;12.80;99.90
10042;DHT22;5061;49.068;12.058;2023-05-10T06:59:18;12.80;99.90
10042;DHT22;5061;49.068;12.058;2023-05-10T07:02:39;12.90;99.90
10042;DHT22;5061;49.068;12.058;2023-05-10T07:06:04;12.90;99.90
10042;DHT22;5061;49.068;12.058;2023-05-10T07:09:25;12.90;99.90
10042;DHT22;5061;49.068;12.058;2023-05-10T07:12:47;13.00;99.90
10042;DHT22;5061;49.068;12.058;2023-05-10T07:16:08;13.00;99.90
10042;DHT22;5061;49.068;12.058;2023-05-10T07:19:29;13.00;99.90
10042;DHT22;5061;49.068;12.058;2023-05-10T07:22:50;13.00;99.90
10042;DHT22;5061;49.068;12.058;2023-05-10T07:26:12;13.00;99.90
10042;DHT22;5061;49.068;12.058;2023-05-10T07:29:33;13.00;99.90
10042;DHT22;5061;49.068;12.058;2023-05-10T07:32:54;13.10;99.90
10042;DHT22;5061;49.068;12.058;2023-05-10T07:36:15;13.10;99.90
10042;DHT22;5061;49.068;12.058;2023-05-10T07:39:36;13.20;99.90
10042;DHT22;5061;49.068;12.058;2023-05-10T07:42:58;13.30;99.90
10042;DHT22;5061;49.068;12.058;2023-05-10T07:46:20;13.30;99.90
10042;DHT22;5061;49.068;12.058;2023-05-10T07:49:41;13.50;99.90
10042;DHT22;5061;49.068;12.058;2023-05-10T07:53:02;13.60;99.90
10042;DHT22;5061;49.068;12.058;2023-05-10T07:56:27;13.70;99.90
10042;DHT22;5061;49.068;12.058;2023-05-10T07:59:50;13.80;99.90
10042;DHT22;5061;49.068;12.058;2023-05-10T08:03:11;13.90;99.90
10042;DHT22;5061;49.068;12.058;2023-05-10T08:06:32;14.00;99.90
10042;DHT22;5061;49.068;12.058;2023-05-10T08:09:53;14.10;99.90
10042;DHT22;5061;49.068;12.058;2023-05-10T08:13:14;14.20;99.90
10042;DHT22;5061;49.068;12.058;2023-05-10T08:16:35;14.20;99.90
10042;DHT22;5061;49.068;12.058;2023-05-10T08:19:56;14.20;99.90
10042;DHT22;5061;49.068;12.058;2023-05-10T08:23:17;14.20;99.90
10042;DHT22;5061;49.068;12.058;2023-05-10T08:26:45;14.20;99.90
10042;DHT22;5061;49.068;12.058;2023-05-10T08:30:08;14.30;99.90
10042;DHT22;5061;49.068;12.058;2023-05-10T08:33:33;14.30;99.90
10042;DHT22;5061;49.068;12.058;2023-05-10T08:36:54;14.40;99.90
10042;DHT22;5061;49.068;12.058;2023-05-10T08:40:21;14.50;99.90
10042;DHT22;5061;49.068;12.058;2023-05-10T08:43:43;14.50;99.90
10042;DHT22;5061;49.068;12.058;2023-05-10T08:47:07;14.60;99.90
10042;DHT22;5061;49.068;12.058;2023-05-10T08:50:30;14.70;99.90
10042;DHT22;5061;49.068;12.058;2023-05-10T08:53:52;14.70;99.90
10042;DHT22;5061;49.068;12.058;2023-05-10T08:57:13;14.80;99.90
10042;DHT22;5061;49.068;12.058;2023-05-10T09:00:34;14.80;99.90
10042;DHT22;5061;49.068;12.058;2023-05-10T09:03:56;14.80;99.90
10042;DHT22;5061;49.068;12.058;2023-05-10T09:07:18;14.80;99.90
10042;DHT22;5061;49.068;12.058;2023-05-10T09:10:39;14.80;99.90
10042;DHT22;5061;49.068;12.058;2023-05-10T09:14:02;14.80;99.90
10042;DHT22;5061;49.068;12.058;2023-05-10T09:17:24;14.90;99.90
10042;DHT22;5061;49.068;12.058;2023-05-10T09:20:46;15.00;99.90
10042;DHT22;5061;49.068;12.058;2023-05-10T09:24:08;15.20;99.90
10042;DHT22;5061;49.068;12.058;2023-05-10T09:27:29;15.30;99.90
10042;DHT22;5061;49.068;12.058;2023-05-10T09:30:53;15.30;99.90
10042;DHT22;5061;49.068;12.058;2023-05-10T09:34:22;15.10;99.90
10042;DHT22;5061;49.068;12.058;2023-05-10T09:37:50;15.00;99.90
10042;DHT22;5061;49.068;12.058;2023-05-10T09:41:20;15.00;99.90
10042;DHT22;5061;49.068;12.058;2023-05-10T09:44:42;14.90;99.90
10042;DHT22;5061;49.068;12.058;2023-05-10T09:48:04;14.90;99.90
10042;DHT22;5061;49.068;12.058;2023-05-10T09:51:25;15.00;99.90
10042;DHT22;5061;49.068;12.058;2023-05-10T09:54:52;15.00;99.90
10042;DHT22;5061;49.068;12.058;2023-05-10T09:58:14;15.10;99.90
10042;DHT22;5061;49.068;12.058;2023-05-10T10:01:35;15.20;99.90
10042;DHT22;5061;49.068;12.058;2023-05-10T10:04:56;15.40;99.90
10042;DHT22;5061;49.068;12.058;2023-05-10T10:08:18;15.40;99.90
10042;DHT22;5061;49.068;12.058;2023-05-10T10:11:39;15.50;99.90
10042;DHT22;5061;49.068;12.058;2023-05-10T10:15:02;15.60;99.90
10042;DHT22;5061;49.068;12.058;2023-05-10T10:18:23;15.70;99.90
10042;DHT22;5061;49.068;12.058;2023-05-10T10:21:50;15.80;99.90
10042;DHT22;5061;49.068;12.058;2023-05-10T10:25:13;15.80;99.90
10042;DHT22;5061;49.068;12.058;2023-05-10T10:32:17;16.00;99.90
10042;DHT22;5061;49.068;12.058;2023-05-10T10:35:40;16.20;99.90
10042;DHT22;5061;49.068;12.058;2023-05-10T10:39:01;16.40;99.90
10042;DHT22;5061;49.068;12.058;2023-05-10T10:42:44;16.60;99.90
10042;DHT22;5061;49.068;12.058;2023-05-10T10:53:10;17.00;99.90
10042;DHT22;5061;49.068;12.058;2023-05-10T10:56:32;17.00;99.90
10042;DHT22;5061;49.068;12.058;2023-05-10T11:00:22;17.00;99.90
10042;DHT22;5061;49.068;12.058;2023-05-10T11:07:19;17.00;99.90
10042;DHT22;5061;49.068;12.058;2023-05-10T11:14:24;17.00;99.90
10042;DHT22;5061;49.068;12.058;2023-05-10T11:17:47;17.10;99.90
10042;DHT22;5061;49.068;12.058;2023-05-10T11:21:12;17.10;99.90
10042;DHT22;5061;49.068;12.058;2023-05-10T11:24:36;17.10;99.90
10042;DHT22;5061;49.068;12.058;2023-05-10T11:27:58;17.00;99.90
10042;DHT22;5061;49.068;12.058;2023-05-10T11:31:23;17.00;99.90
10042;DHT22;5061;49.068;12.058;2023-05-10T11:34:47;16.90;99.90
10042;DHT22;5061;49.068;12.058;2023-05-10T11:38:10;16.80;99.90
10042;DHT22;5061;49.068;12.058;2023-05-10T11:41:32;16.70;99.90
10042;DHT22;5061;49.068;12.058;2023-05-10T11:44:53;16.70;99.90
10042;DHT22;5061;49.068;12.058;2023-05-10T11:48:14;16.70;99.90
10042;DHT22;5061;49.068;12.058;2023-05-10T11:51:37;16.70;99.90
10042;DHT22;5061;49.068;12.058;2023-05-10T11:54:59;16.80;99.90
10042;DHT22;5061;49.068;12.058;2023-05-10T11:58:21;16.90;99.90
10042;DHT22;5061;49.068;12.058;2023-05-10T12:01:43;17.10;99.90
10042;DHT22;5061;49.068;12.058;2023-05-10T12:05:05;17.20;99.90
10042;DHT22;5061;49.068;12.058;2023-05-10T12:08:28;17.40;99.90
10042;DHT22;5061;49.068;12.058;2023-05-10T12:11:49;17.40;99.90
10042;DHT22;5061;49.068;12.058;2023-05-10T12:15:20;17.30;99.90
10042;DHT22;5061;49.068;12.058;2023-05-10T12:18:45;17.10;99.90
10042;DHT22;5061;49.068;12.058;2023-05-10T12:22:06;16.90;99.90
10042;DHT22;5061;49.068;12.058;2023-05-10T12:25:34;16.70;99.90
10042;DHT22;5061;49.068;12.058;2023-05-10T12:29:15;16.60;99.90
10042;DHT22;5061;49.068;12.058;2023-05-10T12:32:44;16.60;99.90
10042;DHT22;5061;49.068;12.058;2023-05-10T12:36:05;16.60;99.90
10042;DHT22;5061;49.068;12.058;2023-05-10T12:39:43;16.60;99.90
10042;DHT22;5061;49.068;12.058;2023-05-10T12:43:04;16.50;99.90
10042;DHT22;5061;49.068;12.058;2023-05-10T12:46:26;16.50;99.90
10042;DHT22;5061;49.068;12.058;2023-05-10T12:49:50;16.50;99.90
10042;DHT22;5061;49.068;12.058;2023-05-10T12:53:16;16.50;99.90
10042;DHT22;5061;49.068;12.058;2023-05-10T12:56:37;16.40;99.90
10042;DHT22;5061;49.068;12.058;2023-05-10T13:00:04;16.40;99.90
10042;DHT22;5061;49.068;12.058;2023-05-10T13:03:26;16.40;99.90
10042;DHT22;5061;49.068;12.058;2023-05-10T13:06:51;16.40;99.90
10042;DHT22;5061;49.068;12.058;2023-05-10T13:10:12;16.40;99.90
10042;DHT22;5061;49.068;12.058;2023-05-10T13:13:33;16.40;99.90
10042;DHT22;5061;49.068;12.058;2023-05-10T13:16:54;16.40;99.90
10042;DHT22;5061;49.068;12.058;2023-05-10T13:20:16;16.40;99.90
10042;DHT22;5061;49.068;12.058;2023-05-10T13:23:37;16.50;99.90
10042;DHT22;5061;49.068;12.058;2023-05-10T13:26:58;16.50;99.90
10042;DHT22;5061;49.068;12.058;2023-05-10T13:30:19;16.60;99.90
10042;DHT22;5061;49.068;12.058;2023-05-10T13:33:41;16.60;99.90
10042;DHT22;5061;49.068;12.058;2023-05-10T13:37:02;16.60;99.90
10042;DHT22;5061;49.068;12.058;2023-05-10T13:40:23;16.70;99.90
10042;DHT22;5061;49.068;12.058;2023-05-10T13:43:44;16.70;99.90
10042;DHT22;5061;49.068;12.058;2023-05-10T13:47:05;16.70;99.90
10042;DHT22;5061;49.068;12.058;2023-05-10T13:50:26;16.70;99.90
10042;DHT22;5061;49.068;12.058;2023-05-10T13:53:47;16.80;99.90
10042;DHT22;5061;49.068;12.058;2023-05-10T13:57:08;16.80;99.90
10042;DHT22;5061;49.068;12.058;2023-05-10T14:00:31;16.90;99.90
10042;DHT22;5061;49.068;12.058;2023-05-10T14:03:53;16.90;99.90
10042;DHT22;5061;49.068;12.058;2023-05-10T14:07:17;16.90;99.90
10042;DHT22;5061;49.068;12.058;2023-05-10T14:10:38;16.80;99.90
10042;DHT22;5061;49.068;12.058;2023-05-10T14:14:00;16.90;99.90
10042;DHT22;5061;49.068;12.058;2023-05-10T14:17:21;16.80;99.90
10042;DHT22;5061;49.068;12.058;2023-05-10T14:20:42;16.80;99.90
10042;DHT22;5061;49.068;12.058;2023-05-10T14:24:03;16.80;99.90
10042;DHT22;5061;49.068;12.058;2023-05-10T14:27:25;16.70;99.90
10042;DHT22;5061;49.068;12.058;2023-05-10T14:30:46;16.70;99.90
10042;DHT22;5061;49.068;12.058;2023-05-10T14:34:08;16.60;99.90
10042;DHT22;5061;49.068;12.058;2023-05-10T14:37:29;16.60;99.90
10042;DHT22;5061;49.068;12.058;2023-05-10T14:40:50;16.50;99.90
10042;DHT22;5061;49.068;12.058;2023-05-10T14:44:11;16.50;99.90
10042;DHT22;5061;49.068;12.058;2023-05-10T14:47:33;16.40;99.90
10042;DHT22;5061;49.068;12.058;2023-05-10T14:50:54;16.30;99.90
10042;DHT22;5061;49.068;12.058;2023-05-10T14:54:15;16.30;99.90
10042;DHT22;5061;49.068;12.058;2023-05-10T14:57:36;16.30;99.90
10042;DHT22;5061;49.068;12.058;2023-05-10T15:00:57;16.20;99.90
10042;DHT22;5061;49.068;12.058;2023-05-10T15:04:18;16.10;99.90
10042;DHT22;5061;49.068;12.058;2023-05-10T15:07:38;16.00;99.90
10042;DHT22;5061;49.068;12.058;2023-05-10T15:10:59;16.00;99.90
10042;DHT22;5061;49.068;12.058;2023-05-10T15:14:21;15.90;99.90
10042;DHT22;5061;49.068;12.058;2023-05-10T15:17:42;15.80;99.90
10042;DHT22;5061;49.068;12.058;2023-05-10T15:21:04;15.70;99.90
10042;DHT22;5061;49.068;12.058;2023-05-10T15:24:25;15.60;99.90
10042;DHT22;5061;49.068;12.058;2023-05-10T15:27:46;15.40;99.90
10042;DHT22;5061;49.068;12.058;2023-05-10T15:31:07;15.30;99.90
10042;DHT22;5061;49.068;12.058;2023-05-10T15:34:28;15.30;99.90
10042;DHT22;5061;49.068;12.058;2023-05-10T15:37:50;15.20;99.90
10042;DHT22;5061;49.068;12.058;2023-05-10T15:41:11;15.20;99.90
10042;DHT22;5061;49.068;12.058;2023-05-10T15:44:32;15.10;99.90
10042;DHT22;5061;49.068;12.058;2023-05-10T15:47:55;15.00;99.90
10042;DHT22;5061;49.068;12.058;2023-05-10T15:51:16;15.00;99.90
10042;DHT22;5061;49.068;12.058;2023-05-10T15:54:38;14.90;99.90
10042;DHT22;5061;49.068;12.058;2023-05-10T15:57:59;14.90;99.90
10042;DHT22;5061;49.068;12.058;2023-05-10T16:01:20;14.80;99.90
10042;DHT22;5061;49.068;12.058;2023-05-10T16:04:41;14.70;99.90
10042;DHT22;5061;49.068;12.058;2023-05-10T16:08:03;14.60;99.90
10042;DHT22;5061;49.068;12.058;2023-05-10T16:11:24;14.60;99.90
10042;DHT22;5061;49.068;12.058;2023-05-10T16:14:46;14.60;99.90
10042;DHT22;5061;49.068;12.058;2023-05-10T16:18:08;14.50;99.90
10042;DHT22;5061;49.068;12.058;2023-05-10T16:21:30;14.40;99.90
10042;DHT22;5061;49.068;12.058;2023-05-10T16:24:55;14.40;99.90
10042;DHT22;5061;49.068;12.058;2023-05-10T16:28:17;14.20;99.90
10042;DHT22;5061;49.068;12.058;2023-05-10T16:31:40;14.10;99.90
10042;DHT22;5061;49.068;12.058;2023-05-10T16:35:01;14.10;99.90
10042;DHT22;5061;49.068;12.058;2023-05-10T16:38:22;14.00;99.90
10042;DHT22;5061;49.068;12.058;2023-05-10T16:41:44;14.00;99.90
10042;DHT22;5061;49.068;12.058;2023-05-10T16:45:06;14.00;99.90
10042;DHT22;5061;49.068;12.058;2023-05-10T16:48:27;14.00;99.90
10042;DHT22;5061;49.068;12.058;2023-05-10T16:51:48;13.90;99.90
10042;DHT22;5061;49.068;12.058;2023-05-10T16:55:10;13.80;99.90
10042;DHT22;5061;49.068;12.058;2023-05-10T16:58:33;13.80;99.90
10042;DHT22;5061;49.068;12.058;2023-05-10T17:01:54;13.80;99.90
10042;DHT22;5061;49.068;12.058;2023-05-10T17:05:15;13.80;99.90
10042;DHT22;5061;49.068;12.058;2023-05-10T17:08:37;13.80;99.90
10042;DHT22;5061;49.068;12.058;2023-05-10T17:12:00;13.70;99.90
10042;DHT22;5061;49.068;12.058;2023-05-10T17:15:23;13.80;99.90
10042;DHT22;5061;49.068;12.058;2023-05-10T17:18:44;13.70;99.90
10042;DHT22;5061;49.068;12.058;2023-05-10T17:22:05;13.70;99.90
10042;DHT22;5061;49.068;12.058;2023-05-10T17:25:26;13.70;99.90
10042;DHT22;5061;49.068;12.058;2023-05-10T17:28:47;13.70;99.90
10042;DHT22;5061;49.068;12.058;2023-05-10T17:32:08;13.70;99.90
10042;DHT22;5061;49.068;12.058;2023-05-10T17:35:29;13.70;99.90
10042;DHT22;5061;49.068;12.058;2023-05-10T17:38:51;13.70;99.90
10042;DHT22;5061;49.068;12.058;2023-05-10T17:42:12;13.70;99.90
10042;DHT22;5061;49.068;12.058;2023-05-10T17:45:34;13.60;99.90
10042;DHT22;5061;49.068;12.058;2023-05-10T17:48:56;13.60;99.90
10042;DHT22;5061;49.068;12.058;2023-05-10T17:52:17;13.50;99.90
10042;DHT22;5061;49.068;12.058;2023-05-10T17:55:41;13.40;99.90
10042;DHT22;5061;49.068;12.058;2023-05-10T17:59:03;13.30;99.90
10042;DHT22;5061;49.068;12.058;2023-05-10T18:02:24;13.20;99.90
10042;DHT22;5061;49.068;12.058;2023-05-10T18:05:46;13.20;99.90
10042;DHT22;5061;49.068;12.058;2023-05-10T18:09:07;13.20;99.90
10042;DHT22;5061;49.068;12.058;2023-05-10T18:12:29;13.10;99.90
10042;DHT22;5061;49.068;12.058;2023-05-10T18:15:53;13.20;99.90
10042;DHT22;5061;49.068;12.058;2023-05-10T18:19:13;13.20;99.90
10042;DHT22;5061;49.068;12.058;2023-05-10T18:22:34;13.20;99.90
10042;DHT22;5061;49.068;12.058;2023-05-10T18:25:55;13.30;99.90
10042;DHT22;5061;49.068;12.058;2023-05-10T18:29:17;13.30;99.90
10042;DHT22;5061;49.068;12.058;2023-05-10T18:32:38;13.30;99.90
10042;DHT22;5061;49.068;12.058;2023-05-10T18:35:59;13.30;99.90
10042;DHT22;5061;49.068;12.058;2023-05-10T18:39:22;13.30;99.90
10042;DHT22;5061;49.068;12.058;2023-05-10T18:42:44;13.30;99.90
10042;DHT22;5061;49.068;12.058;2023-05-10T18:46:06;13.30;99.90
10042;DHT22;5061;49.068;12.058;2023-05-10T18:49:27;13.30;99.90
10042;DHT22;5061;49.068;12.058;2023-05-10T18:52:49;13.20;99.90
10042;DHT22;5061;49.068;12.058;2023-05-10T18:56:10;13.20;99.90
10042;DHT22;5061;49.068;12.058;2023-05-10T18:59:32;13.10;99.90
10042;DHT22;5061;49.068;12.058;2023-05-10T19:02:53;13.10;99.90
10042;DHT22;5061;49.068;12.058;2023-05-10T19:06:15;13.00;99.90
10042;DHT22;5061;49.068;12.058;2023-05-10T19:09:36;12.90;99.90
10042;DHT22;5061;49.068;12.058;2023-05-10T19:12:58;12.90;99.90
10042;DHT22;5061;49.068;12.058;2023-05-10T19:16:19;12.90;99.90
10042;DHT22;5061;49.068;12.058;2023-05-10T19:19:41;12.90;99.90
10042;DHT22;5061;49.068;12.058;2023-05-10T19:23:02;12.80;99.90
10042;DHT22;5061;49.068;12.058;2023-05-10T19:26:24;12.80;99.90
10042;DHT22;5061;49.068;12.058;2023-05-10T19:29:45;12.70;99.90
10042;DHT22;5061;49.068;12.058;2023-05-10T19:33:06;12.60;99.90
10042;DHT22;5061;49.068;12.058;2023-05-10T19:36:28;12.70;99.90
10042;DHT22;5061;49.068;12.058;2023-05-10T19:39:50;12.60;99.90
10042;DHT22;5061;49.068;12.058;2023-05-10T19:43:12;12.60;99.90
10042;DHT22;5061;49.068;12.058;2023-05-10T19:46:33;12.60;99.90
10042;DHT22;5061;49.068;12.058;2023-05-10T19:49:54;12.50;99.90
10042;DHT22;5061;49.068;12.058;2023-05-10T19:53:15;12.50;99.90
10042;DHT22;5061;49.068;12.058;2023-05-10T19:56:36;12.50;99.90
10042;DHT22;5061;49.068;12.058;2023-05-10T19:59:57;12.50;99.90
10042;DHT22;5061;49.068;12.058;2023-05-10T20:03:18;12.40;99.90
10042;DHT22;5061;49.068;12.058;2023-05-10T20:06:39;12.40;99.90
10042;DHT22;5061;49.068;12.058;2023-05-10T20:10:00;12.50;99.90
10042;DHT22;5061;49.068;12.058;2023-05-10T20:13:22;12.40;99.90
10042;DHT22;5061;49.068;12.058;2023-05-10T20:16:43;12.40;99.90
10042;DHT22;5061;49.068;12.058;2023-05-10T20:20:05;12.40;99.90
10042;DHT22;5061;49.068;12.058;2023-05-10T20:23:26;12.40;99.90
10042;DHT22;5061;49.068;12.058;2023-05-10T20:26:49;12.40;99.90
10042;DHT22;5061;49.068;12.058;2023-05-10T20:30:11;12.40;99.90
10042;DHT22;5061;49.068;12.058;2023-05-10T20:33:32;12.30;99.90
10042;DHT22;5061;49.068;12.058;2023-05-10T20:36:53;12.30;99.90
10042;DHT22;5061;49.068;12.058;2023-05-10T20:40:14;12.20;99.90
10042;DHT22;5061;49.068;12.058;2023-05-10T20:43:35;12.30;99.90
10042;DHT22;5061;49.068;12.058;2023-05-10T20:46:57;12.20;99.90
10042;DHT22;5061;49.068;12.058;2023-05-10T20:50:18;12.20;99.90
10042;DHT22;5061;49.068;12.058;2023-05-10T20:53:39;12.20;99.90
10042;DHT22;5061;49.068;12.058;2023-05-10T20:57:00;12.10;99.90
10042;DHT22;5061;49.068;12.058;2023-05-10T21:00:21;12.10;99.90
10042;DHT22;5061;49.068;12.058;2023-05-10T21:03:42;12.10;99.90
10042;DHT22;5061;49.068;12.058;2023-05-10T21:07:03;12.00;99.90
10042;DHT22;5061;49.068;12.058;2023-05-10T21:10:24;12.00;99.90
10042;DHT22;5061;49.068;12.058;2023-05-10T21:13:53;12.00;99.90
10042;DHT22;5061;49.068;12.058;2023-05-10T21:17:15;12.00;99.90
10042;DHT22;5061;49.068;12.058;2023-05-10T21:20:36;12.00;99.90
10042;DHT22;5061;49.068;12.058;2023-05-10T21:23:57;12.00;99.90
10042;DHT22;5061;49.068;12.058;2023-05-10T21:27:19;12.00;99.90
10042;DHT22;5061;49.068;12.058;2023-05-10T21:30:40;12.00;99.90
10042;DHT22;5061;49.068;12.058;2023-05-10T21:34:01;12.00;99.90
10042;DHT22;5061;49.068;12.058;2023-05-10T21:37:23;12.00;99.90
10042;DHT22;5061;49.068;12.058;2023-05-10T21:40:43;12.00;99.90
10042;DHT22;5061;49.068;12.058;2023-05-10T21:44:04;11.90;99.90
10042;DHT22;5061;49.068;12.058;2023-05-10T21:47:25;11.90;99.90
10042;DHT22;5061;49.068;12.058;2023-05-10T21:50:47;11.90;99.90
10042;DHT22;5061;49.068;12.058;2023-05-10T21:54:08;11.90;99.90